Time;durP1;ratioP1;P1;durP2;ratioP2;P2;SDS_P1;SDS_P2;PMS_P1;PMS_P2;Temp;Humidity;BMP_temperature;BMP_pressure;BME280_temperature;BME280_humidity;BME280_pressure;Samples;Min_cycle;Max_cycle;Signal;HPM_P1;HPM_P2
2021/04/09 00:01:11;;;;;;;;;;;;;;;27.60;23.71;101635.78;5076778;28;981;-34
2021/04/09 00:03:36;;;;;;;;;;;;;;;27.27;23.90;101628.41;5076923;28;799;-38
2021/04/09 00:06:01;;;;;;;;;;;;;;;27.25;24.40;101638.53;5076785;28;898;-41
2021/04/09 00:08:27;;;;;;;;;;;;;;;27.71;23.57;101635.50;5077025;28;779;-36
2021/04/09 00:10:52;;;;;;;;;;;;;;;28.04;23.44;101639.28;5076438;28;835;-36
2021/04/09 00:13:17;;;;;;;;;;;;;;;27.73;23.58;101643.44;5076866;28;763;-39
2021/04/09 00:15:42;;;;;;;;;;;;;;;27.72;23.57;101642.63;5076745;28;1909;-38
2021/04/09 00:18:08;;;;;;;;;;;;;;;28.10;23.17;101649.41;5075702;28;890;-41
2021/04/09 00:20:33;;;;;;;;;;;;;;;28.29;23.35;101648.25;5076847;28;820;-38
2021/04/09 00:22:58;;;;;;;;;;;;;;;28.53;22.69;101654.69;5076770;28;803;-39
2021/04/09 00:25:24;;;;;;;;;;;;;;;28.75;22.58;101656.84;5076004;28;816;-38
2021/04/09 00:27:49;;;;;;;;;;;;;;;28.84;22.47;101651.22;5076673;28;791;-38
2021/04/09 00:30:17;;;;;;;;;;;;;;;28.99;22.15;101652.44;5076786;28;813;-38
2021/04/09 00:32:43;;;;;;;;;;;;;;;29.01;22.13;101658.53;5075821;28;1014;-37
2021/04/09 00:35:09;;;;;;;;;;;;;;;28.94;22.18;101651.06;5076978;28;1878;-38
2021/04/09 00:37:34;;;;;;;;;;;;;;;29.10;21.98;101654.75;5074998;28;1338;-38
2021/04/09 00:39:59;;;;;;;;;;;;;;;29.27;22.07;101651.97;5075940;28;894;-38
2021/04/09 00:42:24;;;;;;;;;;;;;;;29.01;21.97;101648.50;5076629;28;755;-38
2021/04/09 00:44:50;;;;;;;;;;;;;;;28.54;22.72;101650.97;5077899;28;891;-36
2021/04/09 00:47:15;;;;;;;;;;;;;;;29.00;22.56;101654.09;5079781;28;1001;-37
2021/04/09 00:49:41;;;;;;;;;;;;;;;29.09;22.17;101647.66;5080749;28;875;-41
2021/04/09 00:52:06;;;;;;;;;;;;;;;29.29;22.07;101650.81;5080182;28;910;-37
2021/04/09 00:54:31;;;;;;;;;;;;;;;29.41;22.04;101656.66;5079794;28;823;-37
2021/04/09 00:56:57;;;;;;;;;;;;;;;29.50;21.85;101660.19;5079160;28;1960;-38
2021/04/09 00:59:22;;;;;;;;;;;;;;;29.55;21.54;101656.94;5079114;28;923;-38
2021/04/09 01:01:47;;;;;;;;;;;;;;;29.30;21.68;101657.91;5078653;28;958;-37
2021/04/09 01:04:13;;;;;;;;;;;;;;;28.81;22.51;101664.31;5080309;28;808;-39
2021/04/09 01:06:38;;;;;;;;;;;;;;;29.08;22.60;101671.19;5080012;28;918;-37
2021/04/09 01:09:03;;;;;;;;;;;;;;;29.34;21.97;101672.78;5080257;28;811;-39
2021/04/09 01:11:29;;;;;;;;;;;;;;;29.59;21.67;101669.16;5079797;28;779;-37
2021/04/09 01:13:54;;;;;;;;;;;;;;;29.57;21.59;101674.72;5079690;28;835;-38
2021/04/09 01:16:28;;;;;;;;;;;;;;;29.65;21.74;101670.28;5079230;28;1973;-38
2021/04/09 01:19:26;;;;;;;;;;;;;;;29.73;21.67;101678.38;5079657;28;819;-39
2021/04/09 01:21:52;;;;;;;;;;;;;;;29.57;21.56;101679.28;5056760;28;1443;-40
2021/04/09 01:24:36;;;;;;;;;;;;;;;29.02;22.10;101677.31;5078348;28;822;-38
2021/04/09 01:27:15;;;;;;;;;;;;;;;29.32;22.24;101684.81;5079706;28;763;-37
2021/04/09 01:29:48;;;;;;;;;;;;;;;29.62;21.85;101687.78;5078777;28;786;-38
2021/04/09 01:32:13;;;;;;;;;;;;;;;29.76;21.63;101688.88;5078741;28;954;-38
2021/04/09 01:34:57;;;;;;;;;;;;;;;29.73;21.44;101696.53;5077799;28;962;-37
2021/04/09 01:37:49;;;;;;;;;;;;;;;29.84;21.49;101688.00;5078135;28;1902;-37
2021/04/09 01:40:17;;;;;;;;;;;;;;;29.79;21.34;101683.13;5076937;28;1015;-36
2021/04/09 01:42:42;;;;;;;;;;;;;;;29.37;21.72;101693.28;5078611;28;799;-37
2021/04/09 01:45:08;;;;;;;;;;;;;;;29.24;22.23;101695.69;5078454;28;743;-37
2021/04/09 01:47:34;;;;;;;;;;;;;;;29.58;22.08;101697.25;5078558;28;947;-38
2021/04/09 01:50:00;;;;;;;;;;;;;;;29.66;21.67;101701.81;5077976;28;793;-37
2021/04/09 01:52:25;;;;;;;;;;;;;;;29.75;21.58;101698.03;5079367;28;818;-38
2021/04/09 01:54:50;;;;;;;;;;;;;;;29.91;21.28;101698.97;5077146;28;871;-36
2021/04/09 01:57:16;;;;;;;;;;;;;;;30.01;21.07;101699.56;5079286;28;1893;-36
2021/04/09 01:59:42;;;;;;;;;;;;;;;29.73;21.32;101700.06;5079264;28;894;-36
2021/04/09 02:02:07;;;;;;;;;;;;;;;29.12;22.26;101701.50;5078113;28;1442;-37
2021/04/09 02:04:32;;;;;;;;;;;;;;;29.56;21.99;101697.41;5077696;28;1103;-37
2021/04/09 02:06:58;;;;;;;;;;;;;;;29.75;21.57;101708.88;5077035;28;968;-39
2021/04/09 02:09:23;;;;;;;;;;;;;;;29.46;21.60;101702.22;5078861;28;815;-41
2021/04/09 02:11:48;;;;;;;;;;;;;;;29.11;22.40;101704.38;5077458;28;875;-40
2021/04/09 02:14:14;;;;;;;;;;;;;;;29.31;22.16;101705.66;5077224;28;976;-37
2021/04/09 02:16:40;;;;;;;;;;;;;;;29.66;21.90;101713.50;5078096;28;1913;-37
2021/04/09 02:19:05;;;;;;;;;;;;;;;29.74;21.91;101709.91;5077517;28;1299;-37
2021/04/09 02:21:31;;;;;;;;;;;;;;;29.56;21.79;101713.69;5078374;28;887;-34
2021/04/09 02:23:57;;;;;;;;;;;;;;;29.78;21.48;101711.25;5078515;28;888;-35
2021/04/09 02:26:22;;;;;;;;;;;;;;;29.86;21.55;101714.94;5078843;28;747;-35
2021/04/09 02:28:47;;;;;;;;;;;;;;;29.89;21.14;101710.00;5077051;28;871;-36
2021/04/09 02:31:13;;;;;;;;;;;;;;;29.48;21.57;101713.72;5076801;28;951;-35
2021/04/09 02:33:38;;;;;;;;;;;;;;;29.40;22.21;101716.47;5078276;28;807;-36
2021/04/09 02:36:07;;;;;;;;;;;;;;;29.75;21.64;101719.72;5078298;28;1955;-36
2021/04/09 02:38:33;;;;;;;;;;;;;;;29.86;21.60;101714.94;5076764;28;896;-36
2021/04/09 02:40:59;;;;;;;;;;;;;;;29.99;21.23;101717.06;5077330;28;752;-36
2021/04/09 02:43:24;;;;;;;;;;;;;;;30.03;21.40;101719.22;5078744;28;720;-36
2021/04/09 02:45:49;;;;;;;;;;;;;;;30.04;21.17;101720.09;5076807;28;823;-36
2021/04/09 02:48:14;;;;;;;;;;;;;;;29.64;21.62;101728.25;5076890;28;935;-38
2021/04/09 02:50:41;;;;;;;;;;;;;;;29.58;21.67;101730.63;5076747;28;823;-35
2021/04/09 02:53:07;;;;;;;;;;;;;;;29.64;21.95;101721.00;5078260;28;948;-36
2021/04/09 02:55:33;;;;;;;;;;;;;;;29.30;22.19;101724.81;5078056;28;1902;-38
2021/04/09 02:57:59;;;;;;;;;;;;;;;29.11;22.70;101734.19;5078091;28;823;-39
2021/04/09 03:00:25;;;;;;;;;;;;;;;29.36;22.20;101734.09;5076756;28;748;-39
2021/04/09 03:02:50;;;;;;;;;;;;;;;29.68;21.76;101738.56;5087564;28;1002;-39
2021/04/09 03:05:16;;;;;;;;;;;;;;;29.87;21.78;101746.44;5060524;28;756;-38
2021/04/09 03:07:42;;;;;;;;;;;;;;;29.80;21.64;101749.03;5077160;28;764;-41
2021/04/09 03:10:08;;;;;;;;;;;;;;;29.80;21.92;101749.88;5060043;28;759;-36
2021/04/09 03:12:33;;;;;;;;;;;;;;;28.56;17.22;101746.38;5077941;28;719;-38
2021/04/09 03:14:58;;;;;;;;;;;;;;;24.92;15.82;101739.44;5077556;28;1278;-34
2021/04/09 03:17:42;;;;;;;;;;;;;;;25.46;18.04;101738.03;5076878;28;1914;-43
2021/04/09 03:20:08;;;;;;;;;;;;;;;26.19;22.47;101754.44;5077769;28;807;-40
2021/04/09 03:22:33;;;;;;;;;;;;;;;26.30;23.75;101748.81;5104451;28;796;-40
2021/04/09 03:24:58;;;;;;;;;;;;;;;26.12;23.76;101746.97;5118192;28;811;-41
2021/04/09 03:27:24;;;;;;;;;;;;;;;26.13;23.63;101742.41;5118004;28;811;-42
2021/04/09 03:29:49;;;;;;;;;;;;;;;25.92;23.58;101770.50;5117837;28;771;-38
2021/04/09 03:32:15;;;;;;;;;;;;;;;26.40;23.36;101751.47;5098503;28;1001;-43
2021/04/09 03:34:40;;;;;;;;;;;;;;;26.48;22.93;101751.53;5077350;28;804;-42
2021/04/09 03:37:06;;;;;;;;;;;;;;;26.25;23.36;101753.81;5076748;28;1945;-43
2021/04/09 03:39:31;;;;;;;;;;;;;;;25.90;23.90;101749.06;5077295;28;763;-43
2021/04/09 03:41:56;;;;;;;;;;;;;;;25.66;24.63;101757.69;5077082;28;846;-43
2021/04/09 03:44:22;;;;;;;;;;;;;;;24.79;18.80;101756.69;5077051;28;743;-42
2021/04/09 03:46:47;;;;;;;;;;;;;;;23.61;20.15;101759.97;5076292;28;1001;-38
2021/04/09 03:49:12;;;;;;;;;;;;;;;25.03;21.13;101759.97;5077311;28;799;-40
2021/04/09 03:51:38;;;;;;;;;;;;;;;25.61;21.67;101758.09;5076696;28;817;-37
2021/04/09 03:54:03;;;;;;;;;;;;;;;25.34;22.27;101754.38;5076794;28;930;-41
2021/04/09 03:56:29;;;;;;;;;;;;;;;25.02;20.41;101769.91;5093533;28;1963;-33
2021/04/09 03:58:54;;;;;;;;;;;;;;;24.81;20.05;101770.00;5097109;28;839;-42
2021/04/09 04:01:19;;;;;;;;;;;;;;;24.86;19.74;101778.50;5076399;28;1022;-34
2021/04/09 04:03:47;;;;;;;;;;;;;;;25.08;19.25;101784.63;5076994;28;811;-38
2021/04/09 04:06:13;;;;;;;;;;;;;;;25.14;18.86;101793.97;5093895;28;945;-52
2021/04/09 04:08:38;;;;;;;;;;;;;;;24.98;17.98;101783.78;5097143;28;831;-36
2021/04/09 04:11:03;;;;;;;;;;;;;;;24.81;17.71;101784.31;5097114;28;900;-45
2021/04/09 04:13:29;;;;;;;;;;;;;;;24.64;18.27;101790.44;5097018;28;775;-34
2021/04/09 04:15:54;;;;;;;;;;;;;;;25.13;17.85;101790.41;5096514;28;1987;-34
2021/04/09 04:18:19;;;;;;;;;;;;;;;25.25;17.58;101799.19;5077942;28;970;-45
2021/04/09 04:20:44;;;;;;;;;;;;;;;25.41;17.40;101792.34;5076716;28;837;-40
2021/04/09 04:23:10;;;;;;;;;;;;;;;25.47;16.79;101789.09;5076310;28;965;-49
2021/04/09 04:25:35;;;;;;;;;;;;;;;25.46;16.95;101800.84;5076794;28;970;-44
2021/04/09 04:28:00;;;;;;;;;;;;;;;24.82;17.63;101806.72;5076865;28;846;-43
2021/04/09 04:30:26;;;;;;;;;;;;;;;24.49;18.80;101801.56;5076462;28;771;-33
2021/04/09 04:32:51;;;;;;;;;;;;;;;24.94;18.68;101818.22;5076175;28;950;-45
2021/04/09 04:35:17;;;;;;;;;;;;;;;25.40;17.14;101818.44;5076759;28;763;-40
2021/04/09 04:37:42;;;;;;;;;;;;;;;25.59;16.53;101815.84;5076327;28;1906;-37
2021/04/09 04:40:08;;;;;;;;;;;;;;;25.17;16.99;101816.06;5075430;28;819;-38
2021/04/09 04:42:33;;;;;;;;;;;;;;;24.75;16.89;101817.19;5076434;28;780;-41
2021/04/09 04:44:58;;;;;;;;;;;;;;;24.50;18.64;101810.50;5076331;28;759;-36
2021/04/09 04:47:23;;;;;;;;;;;;;;;24.79;19.70;101815.91;5076193;28;954;-46
2021/04/09 04:49:49;;;;;;;;;;;;;;;25.19;19.36;101821.31;5076597;28;806;-38
2021/04/09 04:52:14;;;;;;;;;;;;;;;24.97;20.28;101822.47;5076187;28;753;-38
2021/04/09 04:54:39;;;;;;;;;;;;;;;24.68;20.49;101829.50;5076373;28;850;-38
2021/04/09 04:57:05;;;;;;;;;;;;;;;24.40;21.02;101823.94;5076435;28;1906;-48
2021/04/09 04:59:30;;;;;;;;;;;;;;;25.00;20.42;101827.56;5076191;28;783;-35
2021/04/09 05:01:55;;;;;;;;;;;;;;;25.28;20.46;101836.59;5076203;28;958;-47
2021/04/09 05:04:21;;;;;;;;;;;;;;;25.24;20.51;101832.47;5076397;28;882;-39
2021/04/09 05:06:46;;;;;;;;;;;;;;;24.83;21.27;101833.47;5075773;28;778;-36
2021/04/09 05:09:11;;;;;;;;;;;;;;;24.56;22.00;101828.75;5075150;28;1608;-40
2021/04/09 05:11:37;;;;;;;;;;;;;;;24.93;22.08;101835.34;5076339;28;850;-42
2021/04/09 05:14:02;;;;;;;;;;;;;;;24.90;22.75;101833.81;5074776;28;1272;-40
2021/04/09 05:16:27;;;;;;;;;;;;;;;24.85;22.58;101837.88;5075750;28;1973;-39
2021/04/09 05:18:53;;;;;;;;;;;;;;;24.65;22.28;101832.47;5076330;28;789;-35
2021/04/09 05:21:18;;;;;;;;;;;;;;;24.38;22.74;101840.22;5075801;28;815;-36
2021/04/09 05:23:43;;;;;;;;;;;;;;;24.77;22.75;101843.97;5076282;28;798;-34
2021/04/09 05:26:08;;;;;;;;;;;;;;;24.93;22.44;101852.34;5076140;28;751;-40
2021/04/09 05:28:34;;;;;;;;;;;;;;;25.13;22.19;101840.72;5075675;28;739;-41
2021/04/09 05:30:59;;;;;;;;;;;;;;;24.67;22.91;101850.16;5077624;28;726;-38
2021/04/09 05:33:24;;;;;;;;;;;;;;;24.55;23.12;101844.06;5079250;28;954;-35
2021/04/09 05:35:49;;;;;;;;;;;;;;;25.06;22.52;101851.22;5077578;28;1968;-44
2021/04/09 05:38:15;;;;;;;;;;;;;;;24.92;23.15;101853.31;5079666;28;759;-40
2021/04/09 05:40:40;;;;;;;;;;;;;;;25.18;22.86;101857.31;5079488;28;739;-36
2021/04/09 05:43:07;;;;;;;;;;;;;;;24.85;23.19;101854.88;5079200;28;774;-37
2021/04/09 05:45:32;;;;;;;;;;;;;;;24.55;23.86;101862.91;5079462;28;726;-43
2021/04/09 05:48:03;;;;;;;;;;;;;;;24.92;23.71;101869.47;5079014;28;958;-36
2021/04/09 05:50:28;;;;;;;;;;;;;;;25.21;23.37;101870.47;5079209;28;834;-34
2021/04/09 05:52:54;;;;;;;;;;;;;;;25.00;23.62;101874.19;5079455;28;806;-38
2021/04/09 05:55:19;;;;;;;;;;;;;;;24.79;23.99;101877.78;5077962;28;1034;-35
2021/04/09 05:57:45;;;;;;;;;;;;;;;24.73;21.63;101882.88;5079353;28;1909;-35
2021/04/09 06:00:12;;;;;;;;;;;;;;;25.27;20.30;101893.31;5096572;28;1410;-41
2021/04/09 06:02:37;;;;;;;;;;;;;;;25.14;20.42;101882.81;5093312;28;1401;-33
2021/04/09 06:05:02;;;;;;;;;;;;;;;24.80;20.05;101873.28;5098028;28;1362;-33
2021/04/09 06:07:28;;;;;;;;;;;;;;;24.22;20.14;101899.88;5099283;28;727;-36
2021/04/09 06:09:53;;;;;;;;;;;;;;;23.77;19.96;101898.34;5098877;28;819;-41
2021/04/09 06:12:18;;;;;;;;;;;;;;;23.96;19.79;101903.84;5098656;28;1456;-37
2021/04/09 06:14:44;;;;;;;;;;;;;;;24.41;18.47;101900.94;5097893;28;1389;-35
2021/04/09 06:17:09;;;;;;;;;;;;;;;24.46;18.14;101901.38;5090040;28;1914;-41
2021/04/09 06:19:34;;;;;;;;;;;;;;;24.71;17.05;101901.84;5079000;28;877;-43
2021/04/09 06:22:00;;;;;;;;;;;;;;;24.19;17.88;101909.06;5093617;28;803;-40
2021/04/09 06:24:25;;;;;;;;;;;;;;;24.00;17.16;101907.13;5063369;28;1169;-37
2021/04/09 06:26:50;;;;;;;;;;;;;;;24.12;17.32;101912.41;5099017;28;767;-32
2021/04/09 06:29:15;;;;;;;;;;;;;;;24.30;17.13;101913.50;5098568;28;754;-35
2021/04/09 06:31:41;;;;;;;;;;;;;;;24.02;17.23;101915.03;5093965;28;945;-42
2021/04/09 06:34:06;;;;;;;;;;;;;;;23.73;18.05;101916.56;5078485;28;830;-49
2021/04/09 06:36:31;;;;;;;;;;;;;;;24.20;19.25;101921.53;5077998;28;1969;-33
2021/04/09 06:38:57;;;;;;;;;;;;;;;24.28;20.18;101926.22;5078512;28;862;-46
2021/04/09 06:41:24;;;;;;;;;;;;;;;24.67;20.02;101932.72;5078402;28;779;-33
2021/04/09 06:43:49;;;;;;;;;;;;;;;24.89;20.15;101934.31;5077103;28;787;-37
2021/04/09 06:46:15;;;;;;;;;;;;;;;24.67;20.74;101938.13;5078226;28;942;-35
2021/04/09 06:48:40;;;;;;;;;;;;;;;24.58;21.31;101931.72;5078108;28;806;-32
2021/04/09 06:51:06;;;;;;;;;;;;;;;24.79;21.16;101937.00;5076604;28;775;-36
2021/04/09 06:53:31;;;;;;;;;;;;;;;24.82;22.57;101939.41;5077205;28;811;-47
2021/04/09 06:55:56;;;;;;;;;;;;;;;24.48;22.62;101941.59;5078041;28;1905;-49
2021/04/09 06:58:22;;;;;;;;;;;;;;;24.35;22.50;101942.69;5076192;28;847;-33
2021/04/09 07:00:47;;;;;;;;;;;;;;;24.71;22.17;101939.53;5078194;28;799;-36
2021/04/09 07:03:13;;;;;;;;;;;;;;;24.95;22.07;101941.03;5077485;28;950;-37
2021/04/09 07:05:38;;;;;;;;;;;;;;;24.54;22.78;101949.13;5090116;28;2509;-32
2021/04/09 07:08:04;;;;;;;;;;;;;;;24.43;23.32;101945.53;5098201;28;1106;-42
2021/04/09 07:10:30;;;;;;;;;;;;;;;24.08;23.56;101950.31;5080170;28;767;-43
2021/04/09 07:13:02;;;;;;;;;;;;;;;24.81;22.78;101947.63;5097622;28;862;-42
2021/04/09 07:15:28;;;;;;;;;;;;;;;24.72;22.93;101943.94;5097527;28;1906;-39
2021/04/09 07:17:54;;;;;;;;;;;;;;;24.58;23.31;101942.47;5064362;28;1306;-41
2021/04/09 07:20:23;;;;;;;;;;;;;;;24.46;23.56;101945.28;5077465;28;774;-41
2021/04/09 07:22:51;;;;;;;;;;;;;;;24.50;23.62;101947.69;5077377;28;827;-41
2021/04/09 07:25:20;;;;;;;;;;;;;;;24.49;23.65;101959.44;5077044;28;802;-40
2021/04/09 07:27:46;;;;;;;;;;;;;;;24.50;23.64;101950.38;5077314;28;799;-42
2021/04/09 07:30:15;;;;;;;;;;;;;;;24.54;23.62;101951.81;5077911;28;732;-40
2021/04/09 07:32:41;;;;;;;;;;;;;;;24.62;23.82;101953.81;5077063;28;955;-40
2021/04/09 07:35:10;;;;;;;;;;;;;;;24.63;23.49;101948.28;5076030;28;771;-36
2021/04/09 07:37:52;;;;;;;;;;;;;;;24.74;23.45;101957.25;5077299;28;1984;-42
2021/04/09 07:40:22;;;;;;;;;;;;;;;24.79;23.56;101955.84;5077357;28;835;-41
2021/04/09 07:42:47;;;;;;;;;;;;;;;24.18;19.92;101949.53;5077060;28;815;-38
2021/04/09 07:45:13;;;;;;;;;;;;;;;24.09;20.70;101952.00;5076994;28;795;-42
2021/04/09 07:47:39;;;;;;;;;;;;;;;24.00;20.86;101952.81;5075276;28;1178;-36
2021/04/09 07:50:05;;;;;;;;;;;;;;;24.09;21.92;101945.75;5077235;28;766;-43
2021/04/09 07:52:43;;;;;;;;;;;;;;;24.09;22.62;101954.69;5077031;28;815;-40
2021/04/09 07:55:11;;;;;;;;;;;;;;;24.29;22.30;101967.44;5085147;28;1615;-39
2021/04/09 07:57:36;;;;;;;;;;;;;;;24.14;22.35;101956.13;5095592;28;1902;-42
2021/04/09 08:00:02;;;;;;;;;;;;;;;24.18;22.90;101955.75;5096750;28;1177;-42
2021/04/09 08:02:39;;;;;;;;;;;;;;;24.29;23.37;101957.50;5096810;28;804;-39
2021/04/09 08:05:05;;;;;;;;;;;;;;;24.27;23.76;101961.31;5097505;28;743;-35
2021/04/09 08:07:33;;;;;;;;;;;;;;;24.45;23.57;101951.66;5097296;28;807;-41
2021/04/09 08:09:59;;;;;;;;;;;;;;;24.38;23.74;101960.38;5097029;28;821;-41
2021/04/09 08:12:27;;;;;;;;;;;;;;;24.26;24.07;101968.53;5096623;28;906;-41
2021/04/09 08:14:53;;;;;;;;;;;;;;;24.24;24.08;101964.28;5097191;28;1295;-43
2021/04/09 08:17:19;;;;;;;;;;;;;;;24.31;24.40;101968.13;5086443;28;1901;-41
2021/04/09 08:19:46;;;;;;;;;;;;;;;24.25;24.47;101965.97;5076165;28;843;-39
2021/04/09 08:22:11;;;;;;;;;;;;;;;24.26;24.62;101963.16;5074554;28;906;-44
2021/04/09 08:24:37;;;;;;;;;;;;;;;24.24;24.64;101962.41;5065710;28;977;-42
2021/04/09 08:27:02;;;;;;;;;;;;;;;24.30;24.54;101961.91;5096507;28;763;-44
2021/04/09 08:29:28;;;;;;;;;;;;;;;24.36;24.46;101965.88;5096901;28;871;-45
2021/04/09 08:31:53;;;;;;;;;;;;;;;24.41;24.41;101966.34;5096326;28;1026;-43
2021/04/09 08:34:20;;;;;;;;;;;;;;;24.41;24.42;101965.47;5078149;28;1087;-42
2021/04/09 08:36:45;;;;;;;;;;;;;;;24.54;24.26;101966.09;5096746;28;1959;-45
2021/04/09 08:39:11;;;;;;;;;;;;;;;24.50;24.42;101975.44;5096737;28;778;-35
2021/04/09 08:41:37;;;;;;;;;;;;;;;24.76;24.28;101974.09;5096154;28;818;-35
2021/04/09 08:44:02;;;;;;;;;;;;;;;24.85;24.07;101970.59;5096658;28;814;-34
2021/04/09 08:46:27;;;;;;;;;;;;;;;24.83;24.27;101975.25;5075085;28;954;-39
2021/04/09 08:48:53;;;;;;;;;;;;;;;24.97;23.85;101976.75;5076122;28;770;-41
2021/04/09 08:51:21;;;;;;;;;;;;;;;24.96;23.75;101975.03;5076537;28;755;-45
2021/04/09 08:53:46;;;;;;;;;;;;;;;24.97;24.03;101970.50;5076588;28;799;-37
2021/04/09 08:56:11;;;;;;;;;;;;;;;25.02;23.87;101958.34;5073956;28;1964;-36
2021/04/09 08:58:43;;;;;;;;;;;;;;;25.04;23.89;101959.03;5076574;28;759;-39
2021/04/09 09:01:10;;;;;;;;;;;;;;;25.06;23.80;101964.28;5076313;28;966;-41
2021/04/09 09:03:35;;;;;;;;;;;;;;;25.06;23.70;101958.91;5076212;28;946;-43
2021/04/09 09:06:01;;;;;;;;;;;;;;;25.13;23.90;101965.44;5090168;28;859;-40
2021/04/09 09:08:47;;;;;;;;;;;;;;;25.14;23.45;101971.69;5120625;28;882;-41
2021/04/09 09:11:13;;;;;;;;;;;;;;;24.85;23.73;101965.22;5120253;28;878;-43
2021/04/09 09:13:45;;;;;;;;;;;;;;;24.74;24.27;101959.94;5120796;28;875;-43
2021/04/09 09:16:11;;;;;;;;;;;;;;;24.67;24.26;101956.94;5118877;28;1981;-36
2021/04/09 09:18:36;;;;;;;;;;;;;;;24.75;24.17;101964.34;5079703;28;890;-42
2021/04/09 09:21:04;;;;;;;;;;;;;;;24.69;24.20;101960.38;5080106;28;787;-41
2021/04/09 09:23:49;;;;;;;;;;;;;;;24.87;23.87;101963.25;5080057;28;782;-38
2021/04/09 09:26:32;;;;;;;;;;;;;;;24.69;24.12;101963.88;5114169;28;903;-40
2021/04/09 09:29:16;;;;;;;;;;;;;;;24.75;24.18;101967.03;5120682;28;775;-40
2021/04/09 09:31:41;;;;;;;;;;;;;;;24.83;23.97;101962.66;5109956;28;965;-42
2021/04/09 09:34:19;;;;;;;;;;;;;;;24.86;24.13;101972.28;5079461;28;744;-40
2021/04/09 09:36:59;;;;;;;;;;;;;;;24.78;24.07;101969.44;5079586;28;1960;-38
2021/04/09 09:39:44;;;;;;;;;;;;;;;24.80;24.13;101956.69;5079819;28;752;-39
2021/04/09 09:42:09;;;;;;;;;;;;;;;24.75;24.10;101965.19;5078966;28;800;-40
2021/04/09 09:44:35;;;;;;;;;;;;;;;24.62;23.98;101959.19;5093719;28;1492;-38
2021/04/09 09:47:01;;;;;;;;;;;;;;;24.59;24.17;101957.63;5096569;28;1365;-42
2021/04/09 09:49:27;;;;;;;;;;;;;;;24.67;23.93;101957.78;5098614;28;1389;-42
2021/04/09 09:51:52;;;;;;;;;;;;;;;24.88;23.93;101950.63;5099422;28;841;-39
2021/04/09 09:54:27;;;;;;;;;;;;;;;24.97;23.68;101960.59;5099781;28;778;-41
2021/04/09 09:56:53;;;;;;;;;;;;;;;25.08;23.69;101954.22;5098887;28;1914;-42
2021/04/09 09:59:19;;;;;;;;;;;;;;;25.12;23.50;101957.50;5099468;28;751;-39
2021/04/09 10:01:48;;;;;;;;;;;;;;;24.98;23.91;101951.53;5094142;28;943;-41
2021/04/09 10:04:16;;;;;;;;;;;;;;;25.09;23.65;101953.22;5080695;28;2252;-42
2021/04/09 10:06:46;;;;;;;;;;;;;;;25.14;23.57;101942.06;5088477;28;983;-41
2021/04/09 10:09:11;;;;;;;;;;;;;;;25.25;23.47;101958.09;5080862;28;857;-40
2021/04/09 10:11:37;;;;;;;;;;;;;;;25.30;23.37;101949.56;5093479;28;1046;-43
2021/04/09 10:14:03;;;;;;;;;;;;;;;25.28;23.46;101952.41;5060585;28;1490;-41
2021/04/09 10:16:28;;;;;;;;;;;;;;;25.25;23.62;101947.31;5078479;28;1973;-40
2021/04/09 10:18:54;;;;;;;;;;;;;;;25.39;23.47;101956.78;5078780;28;826;-43
2021/04/09 10:21:20;;;;;;;;;;;;;;;25.29;23.49;101958.66;5078993;28;879;-41
2021/04/09 10:23:46;;;;;;;;;;;;;;;25.19;23.73;101956.78;5078837;28;834;-41
2021/04/09 10:26:12;;;;;;;;;;;;;;;25.15;23.68;101949.13;5077950;28;868;-43
2021/04/09 10:28:38;;;;;;;;;;;;;;;25.10;23.90;101946.88;5079059;28;799;-41
2021/04/09 10:31:23;;;;;;;;;;;;;;;25.16;23.53;101948.13;5078800;28;866;-39
2021/04/09 10:33:49;;;;;;;;;;;;;;;25.07;23.79;101953.38;5077870;28;804;-40
2021/04/09 10:36:24;;;;;;;;;;;;;;;25.19;23.78;101961.34;5078173;28;1894;-40
2021/04/09 10:38:50;;;;;;;;;;;;;;;25.13;23.63;101954.66;5078737;28;775;-38
2021/04/09 10:41:23;;;;;;;;;;;;;;;25.02;23.65;101954.78;5078078;28;771;-40
2021/04/09 10:43:58;;;;;;;;;;;;;;;24.72;18.66;101953.84;5078970;28;906;-40
2021/04/09 10:46:24;;;;;;;;;;;;;;;24.37;16.34;101943.41;5096933;28;875;-38
2021/04/09 10:48:50;;;;;;;;;;;;;;;24.29;15.76;101946.75;5098564;28;845;-38
2021/04/09 10:51:15;;;;;;;;;;;;;;;24.28;16.15;101952.25;5080537;28;779;-39
2021/04/09 10:53:40;;;;;;;;;;;;;;;24.20;15.18;101943.03;5072936;28;811;-42
2021/04/09 10:56:07;;;;;;;;;;;;;;;24.26;14.67;101938.09;5077993;28;1894;-43
2021/04/09 10:58:32;;;;;;;;;;;;;;;24.30;15.90;101937.72;5078171;28;823;-41
2021/04/09 11:00:58;;;;;;;;;;;;;;;24.20;16.70;101940.34;5078081;28;862;-38
2021/04/09 11:03:23;;;;;;;;;;;;;;;24.32;15.91;101940.25;5060139;28;960;-39
2021/04/09 11:05:48;;;;;;;;;;;;;;;24.06;16.92;101932.59;5077867;28;755;-39
2021/04/09 11:08:32;;;;;;;;;;;;;;;24.09;16.72;101937.69;5075994;28;1170;-38
2021/04/09 11:11:01;;;;;;;;;;;;;;;23.40;17.18;101935.44;5077405;28;786;-39
2021/04/09 11:13:30;;;;;;;;;;;;;;;23.41;17.47;101938.94;5077782;28;890;-41
2021/04/09 11:15:56;;;;;;;;;;;;;;;23.50;17.33;101938.19;5077325;28;1910;-42
2021/04/09 11:18:21;;;;;;;;;;;;;;;23.90;17.09;101936.63;5077326;28;994;-40
2021/04/09 11:20:47;;;;;;;;;;;;;;;24.25;15.61;101920.25;5078034;28;814;-41
2021/04/09 11:23:13;;;;;;;;;;;;;;;24.05;14.69;101923.69;5077394;28;822;-41
2021/04/09 11:25:39;;;;;;;;;;;;;;;24.25;14.09;101923.81;5077354;28;767;-41
2021/04/09 11:28:05;;;;;;;;;;;;;;;24.32;18.12;101926.81;5076797;28;703;-41
2021/04/09 11:30:31;;;;;;;;;;;;;;;24.29;16.27;101927.91;5077561;28;827;-43
2021/04/09 11:32:57;;;;;;;;;;;;;;;24.24;14.73;101919.41;5077115;28;1010;-40
2021/04/09 11:35:22;;;;;;;;;;;;;;;24.05;16.88;101930.91;5077352;28;815;-40
2021/04/09 11:37:52;;;;;;;;;;;;;;;24.13;15.79;101927.53;5077316;28;1963;-39
2021/04/09 11:40:31;;;;;;;;;;;;;;;24.26;15.63;101919.25;5077171;28;759;-40
2021/04/09 11:42:57;;;;;;;;;;;;;;;24.31;15.56;101917.88;5077517;28;767;-40
2021/04/09 11:45:22;;;;;;;;;;;;;;;24.50;14.82;101913.56;5077319;28;866;-41
2021/04/09 11:47:47;;;;;;;;;;;;;;;24.46;15.19;101921.06;5064745;28;1007;-42
2021/04/09 11:50:17;;;;;;;;;;;;;;;24.45;14.92;101910.44;5076837;28;518;-40
2021/04/09 11:52:51;;;;;;;;;;;;;;;24.49;15.00;101908.34;5077481;28;751;-41
2021/04/09 11:55:17;;;;;;;;;;;;;;;24.36;15.21;101908.56;5077067;28;778;-38
2021/04/09 11:57:42;;;;;;;;;;;;;;;24.26;14.74;101914.75;5077092;28;1914;-41
2021/04/09 12:00:27;;;;;;;;;;;;;;;24.02;15.36;101923.97;5077191;28;783;-40
2021/04/09 12:03:05;;;;;;;;;;;;;;;23.47;16.04;101917.78;5076504;28;974;-40
2021/04/09 12:05:32;;;;;;;;;;;;;;;23.91;14.58;101913.25;5077093;28;728;-38
2021/04/09 12:07:57;;;;;;;;;;;;;;;24.12;17.51;101909.72;5077011;28;783;-40
2021/04/09 12:10:23;;;;;;;;;;;;;;;23.93;14.06;101911.31;5076599;28;866;-40
2021/04/09 12:12:48;;;;;;;;;;;;;;;23.76;13.84;101908.25;5076811;28;807;-41
2021/04/09 12:15:14;;;;;;;;;;;;;;;23.84;13.47;101911.13;5076255;28;1144;-37
2021/04/09 12:17:39;;;;;;;;;;;;;;;23.92;13.36;101921.19;5075859;28;1969;-40
2021/04/09 12:20:09;;;;;;;;;;;;;;;24.02;12.86;101920.41;5076610;28;816;-40
2021/04/09 12:22:34;;;;;;;;;;;;;;;23.94;13.03;101937.22;5076726;28;837;-38
2021/04/09 12:25:00;;;;;;;;;;;;;;;23.86;14.71;101935.16;5076027;28;851;-40
2021/04/09 12:27:25;;;;;;;;;;;;;;;23.86;15.69;101929.78;5077002;28;850;-38
2021/04/09 12:29:50;;;;;;;;;;;;;;;23.68;16.75;101930.41;5076817;28;830;-39
2021/04/09 12:32:15;;;;;;;;;;;;;;;23.43;17.28;101926.25;5075893;28;1013;-42
2021/04/09 12:34:41;;;;;;;;;;;;;;;23.15;18.14;101925.84;5076715;28;807;-44
2021/04/09 12:37:06;;;;;;;;;;;;;;;23.26;18.98;101922.25;5076473;28;1902;-39
2021/04/09 12:39:31;;;;;;;;;;;;;;;23.18;19.35;101928.28;5076335;28;791;-46
2021/04/09 12:41:57;;;;;;;;;;;;;;;23.56;19.43;101924.22;5080077;28;747;-37
2021/04/09 12:44:22;;;;;;;;;;;;;;;23.14;19.10;101932.19;5079135;28;843;-47
2021/04/09 12:46:48;;;;;;;;;;;;;;;22.92;19.45;101921.38;5079818;28;1014;-35
2021/04/09 12:49:16;;;;;;;;;;;;;;;22.46;19.63;101923.25;5080674;28;846;-47
2021/04/09 12:51:42;;;;;;;;;;;;;;;22.21;19.80;101925.19;5080617;28;802;-31
2021/04/09 12:54:07;;;;;;;;;;;;;;;22.10;19.75;101920.69;5080580;28;806;-38